Barcelona Express — VRLX6 — position and weather

sailwx.info

Track history (hours):
 
Tides and Currents Weather Stations Pressure Air Temp Water Temp Dewpoint Dewpoint Depression Visibility Wind Speed Wind Dir Waves Ship Positions

Barcelona Express

Last reported at 2017-Sep-20 14:57 UTC. Time now 2017-Sep-23 04:14 UTC.
Position N 40°31' W 009°33'.

Length 228 m; draft 11 m.

Type: Ship (hazmat cat D). MMSI: 477694300.

Date/timePositionNaut miles runAvg speedWind from/ knotsBaromVisibWave heightAir tempDewpointWater temp
2017-Sep-20 14:57N 40°31' W 009°33'2119.5
2017-Sep-20 13:53N 40°11' W 009°38'719.5
2017-Sep-20 13:30N 40°04' W 009°40'1019.5
2017-Sep-20 13:00N 39°54' W 009°43'3619.8
2017-Sep-20 11:12N 39°19' W 009°52'419.7
2017-Sep-20 11:00N 39°15' W 009°52'1019.2
2017-Sep-20 10:30N 39°06' W 009°51'1019.2
2017-Sep-20 10:01N 38°56' W 009°52'1019.3
2017-Sep-20 09:30N 38°47' W 009°52'918.9
2017-Sep-20 09:00N 38°37' W 009°50'918.9
2017-Sep-20 08:30N 38°28' W 009°48'918.8
2017-Sep-20 08:01N 38°19' W 009°45'1019.0
2017-Sep-20 07:30N 38°10' W 009°42'918.7
2017-Sep-20 07:01N 38°01' W 009°39'918.8
2017-Sep-20 06:30N 37°52' W 009°36'918.8
2017-Sep-20 06:00N 37°42' W 009°33'1019.3
2017-Sep-20 05:30N 37°33' W 009°31'1019.4
2017-Sep-20 05:01N 37°24' W 009°28'1019.3
2017-Sep-20 04:30N 37°14' W 009°25'1019.4
2017-Sep-20 04:00N 37°05' W 009°22'1019.1
2017-Sep-20 03:31N 36°56' W 009°19'1019.1
2017-Sep-20 03:01N 36°48' W 009°12'1019.0
2017-Sep-20 02:31N 36°43' W 009°02'1019.3
2017-Sep-20 02:01N 36°40' W 008°50'1019.1
2017-Sep-20 01:30N 36°38' W 008°39'1019.3
2017-Sep-20 01:00N 36°35' W 008°27'1019.5
2017-Sep-20 00:30N 36°32' W 008°16'1019.5
2017-Sep-20 00:00N 36°29' W 008°04'1019.6
2017-Sep-19 23:29N 36°26' W 007°52'919.7
2017-Sep-19 23:00N 36°23' W 007°41'1019.6
2017-Sep-19 22:29N 36°20' W 007°29'1919.6
2017-Sep-19 21:32N 36°13' W 007°07'019.3
2017-Sep-19 21:30N 36°13' W 007°07'1019.4
2017-Sep-19 21:00N 36°10' W 006°55'1019.2
2017-Sep-19 20:28N 36°07' W 006°43'1019.3
2017-Sep-19 19:58N 36°03' W 006°32'4717.5
2017-Sep-19 17:15N 35°57' W 005°34'311.3
2017-Sep-19 17:01N 35°57' W 005°30'2 0.2
2017-Sep-19 06:29N 35°57' W 005°33'5 9.5
2017-Sep-19 06:00N 35°59' W 005°28'5 9.5
2017-Sep-19 05:30N 36°02' W 005°24'5 9.6
2017-Sep-19 05:00N 36°07' W 005°25'1 1.1
2017-Sep-19 04:29N 36°08' W 005°25'0 0.0
2017-Sep-19 03:14N 36°08' W 005°25'0 0.0
2017-Sep-19 02:50N 36°08' W 005°25'0 0.0
2017-Sep-19 02:26N 36°08' W 005°25'0 0.0
2017-Sep-18 21:14N 36°08' W 005°25'0 0.0
2017-Sep-18 20:56N 36°08' W 005°25'0 0.0
2017-Sep-18 20:31N 36°08' W 005°25'1 2.0
2017-Sep-18 20:00N 36°08' W 005°24'4 7.2
2017-Sep-18 19:30N 36°05' W 005°22'3 5.5
2017-Sep-18 19:01N 36°04' W 005°18'1 2.7
2017-Sep-18 18:31N 36°05' W 005°17'1 1.3
2017-Sep-18 18:01N 36°05' W 005°16'2 3.8
2017-Sep-18 17:30N 36°04' W 005°18'1 2.1
2017-Sep-18 17:01N 36°04' W 005°17'21812.9
2017-Sep-18 00:05N 37°16' W 001°00'215.0
2017-Sep-17 23:56N 37°17' W 000°58'614.9
2017-Sep-17 23:30N 37°21' W 000°52'815.1
2017-Sep-17 23:00N 37°27' W 000°45'815.2
2017-Sep-17 22:30N 37°32' W 000°38'1215.0
2017-Sep-17 21:44N 37°41' W 000°29'315.1
2017-Sep-17 21:30N 37°44' W 000°26'815.1
2017-Sep-17 21:00N 37°50' W 000°21'814.8
2017-Sep-17 20:29N 37°56' W 000°16'714.7
2017-Sep-17 20:00N 38°02' W 000°11'1814.3
2017-Sep-17 18:44N 38°18' E 000°01'10413.6
2017-Sep-17 11:06N 39°41' E 001°21'213.4
2017-Sep-17 10:58N 39°43' E 001°22'713.8
2017-Sep-17 10:30N 39°48' E 001°28'714.0
2017-Sep-17 10:00N 39°53' E 001°34'714.3
2017-Sep-17 09:30N 39°58' E 001°40'714.5
2017-Sep-17 09:00N 40°04' E 001°46'714.4
2017-Sep-17 08:30N 40°09' E 001°52'714.2
2017-Sep-17 08:00N 40°15' E 001°58'714.0
2017-Sep-17 07:30N 40°20' E 002°04'714.1
2017-Sep-17 07:01N 40°25' E 002°10'714.1
2017-Sep-17 06:30N 40°31' E 002°16'714.2
2017-Sep-17 06:00N 40°36' E 002°22'714.3
2017-Sep-17 05:30N 40°42' E 002°28'714.7
2017-Sep-17 05:00N 40°48' E 002°34'714.5
2017-Sep-17 04:30N 40°53' E 002°40'714.7
2017-Sep-17 04:00N 40°59' E 002°46'815.1
2017-Sep-17 03:30N 41°05' E 002°52'714.7
2017-Sep-17 03:00N 41°10' E 002°59'10514.7
2017-Sep-16 19:52N 42°33' E 004°26'514.3
2017-Sep-16 19:30N 42°37' E 004°30'714.6
2017-Sep-16 19:00N 42°43' E 004°35'714.4
2017-Sep-16 18:30N 42°49' E 004°40'714.2
2017-Sep-16 18:01N 42°55' E 004°45'714.1
2017-Sep-16 17:31N 43°01' E 004°50'714.0
2017-Sep-16 17:01N 43°07' E 004°56'713.6
2017-Sep-16 16:30N 43°13' E 005°01'714.0
2017-Sep-16 16:00N 43°20' E 004°58'510.3
2017-Sep-16 15:31N 43°24' E 004°54'2 4.8
2017-Sep-16 15:00N 43°24' E 004°51'0 0.0
2017-Sep-16 14:30N 43°24' E 004°51'0 0.0
2017-Sep-16 14:00N 43°24' E 004°51'0 0.0
2017-Sep-16 13:30N 43°24' E 004°51'0 0.0
2017-Sep-16 13:00N 43°24' E 004°51'0 0.0
2017-Sep-16 12:30N 43°24' E 004°51'0 0.0
2017-Sep-16 12:00N 43°24' E 004°51'0 0.0
2017-Sep-16 11:30N 43°24' E 004°51'0 0.0
2017-Sep-16 11:00N 43°24' E 004°51'0 0.0
2017-Sep-16 10:30N 43°24' E 004°51'0 0.0
2017-Sep-16 10:00N 43°24' E 004°51'0 0.0
2017-Sep-16 09:30N 43°24' E 004°51'0 0.0
2017-Sep-16 09:00N 43°24' E 004°51'0 0.0
2017-Sep-16 08:27N 43°24' E 004°51'0 0.0
2017-Sep-16 08:00N 43°24' E 004°51'0 0.0
2017-Sep-16 07:30N 43°24' E 004°51'0 0.0
2017-Sep-16 07:00N 43°24' E 004°51'0 0.0
2017-Sep-16 06:30N 43°24' E 004°51'0 0.0
2017-Sep-16 06:00N 43°24' E 004°51'0 0.0
2017-Sep-16 05:27N 43°24' E 004°51'0 0.0
2017-Sep-16 05:00N 43°24' E 004°51'0 0.0
2017-Sep-16 04:30N 43°24' E 004°51'0 0.0
2017-Sep-16 03:54N 43°24' E 004°51'0 0.0
2017-Sep-16 03:30N 43°24' E 004°51'0 1.0
2017-Sep-16 03:00N 43°24' E 004°52'510.4
2017-Sep-16 02:31N 43°22' E 004°58'4 7.7
2017-Sep-16 02:00N 43°18' E 004°60'4 8.5
2017-Sep-16 01:30N 43°14' E 005°02'5 9.2
2017-Sep-16 01:01N 43°11' E 005°06'3 5.6
2017-Sep-16 00:30N 43°09' E 005°09'714.5
2017-Sep-16 00:01N 43°05' E 005°17'815.0
2017-Sep-15 23:31N 43°02' E 005°27'714.8
2017-Sep-15 23:01N 42°57' E 005°34'6413.7
2017-Sep-15 18:22N 43°10' E 006°60'615.1
2017-Sep-15 18:00N 43°14' E 007°06'715.0
2017-Sep-15 17:30N 43°18' E 007°14'815.0
2017-Sep-15 17:00N 43°22' E 007°23'815.0
2017-Sep-15 16:30N 43°27' E 007°31'814.8
2017-Sep-15 15:59N 43°31' E 007°39'2615.2
2017-Sep-15 14:17N 43°46' E 008°09'615.2
2017-Sep-15 13:54N 43°49' E 008°15'615.8
2017-Sep-15 13:31N 43°54' E 008°22'815.6
2017-Sep-15 13:00N 43°59' E 008°29'815.5
2017-Sep-15 12:30N 44°05' E 008°36'815.2
2017-Sep-15 12:00N 44°11' E 008°44'815.5
2017-Sep-15 11:31N 44°16' E 008°52'713.9
2017-Sep-15 11:00N 44°22' E 008°57'3 6.1
2017-Sep-15 10:30N 44°24' E 008°54'0 0.5
2017-Sep-15 09:58N 44°24' E 008°54'0 0.0
2017-Sep-15 09:28N 44°24' E 008°54'0 0.0
2017-Sep-15 08:58N 44°24' E 008°54'0 0.0
2017-Sep-15 08:28N 44°24' E 008°54'0 0.0
2017-Sep-15 07:58N 44°24' E 008°54'0 0.0
2017-Sep-15 07:30N 44°24' E 008°54'0 0.0
2017-Sep-15 07:00N 44°24' E 008°54'0 0.0
2017-Sep-15 06:30N 44°24' E 008°54'0 0.0
2017-Sep-15 06:00N 44°24' E 008°54'0 0.0
2017-Sep-15 05:30N 44°24' E 008°54'0 0.0
2017-Sep-15 05:00N 44°24' E 008°54'0 0.0
2017-Sep-15 04:30N 44°24' E 008°54'0 0.0
2017-Sep-15 04:00N 44°24' E 008°54'0 0.0
2017-Sep-15 03:30N 44°24' E 008°54'0 0.0
2017-Sep-15 03:00N 44°24' E 008°54'0 0.0
2017-Sep-15 02:30N 44°24' E 008°54'0 0.0
2017-Sep-15 02:00N 44°24' E 008°54'0 0.0
2017-Sep-15 01:30N 44°24' E 008°54'0 0.0
2017-Sep-15 01:00N 44°24' E 008°54'0 0.0
2017-Sep-15 00:30N 44°24' E 008°54'0 0.0
2017-Sep-15 00:00N 44°24' E 008°54'0 0.0
2017-Sep-14 23:30N 44°24' E 008°54'0 0.0
2017-Sep-14 23:00N 44°24' E 008°54'0 0.0
2017-Sep-14 22:30N 44°24' E 008°54'0 0.0
2017-Sep-14 22:00N 44°24' E 008°54'0 0.0
2017-Sep-14 21:30N 44°24' E 008°54'0 0.0
2017-Sep-14 21:00N 44°24' E 008°54'0 0.0
2017-Sep-14 20:30N 44°24' E 008°54'0 0.0
2017-Sep-14 20:00N 44°24' E 008°54'0 0.0
2017-Sep-14 19:30N 44°24' E 008°54'0 0.0
2017-Sep-14 19:00N 44°24' E 008°54'0 0.0
2017-Sep-14 18:30N 44°24' E 008°54'0 0.0
2017-Sep-14 18:00N 44°24' E 008°54'0 0.0
2017-Sep-14 17:30N 44°24' E 008°54'0 0.0
2017-Sep-14 17:00N 44°24' E 008°54'0 0.0
2017-Sep-14 16:30N 44°24' E 008°54'0 0.0
2017-Sep-14 16:00N 44°24' E 008°54'0 0.0
2017-Sep-14 15:30N 44°24' E 008°54'0 0.0
2017-Sep-14 15:00N 44°24' E 008°54'0 0.0
2017-Sep-14 14:30N 44°24' E 008°54'0 0.0
2017-Sep-14 14:00N 44°24' E 008°54'0 0.0
2017-Sep-14 13:30N 44°24' E 008°54'1 1.7
2017-Sep-14 13:00N 44°24' E 008°55'4 7.1
2017-Sep-14 12:30N 44°22' E 008°59'2 3.0
2017-Sep-14 12:00N 44°20' E 008°60'2 3.2
2017-Sep-14 11:30N 44°19' E 008°60'816.4
2017-Sep-14 11:01N 44°11' E 009°05'918.4
2017-Sep-14 10:31N 44°03' E 009°10'1019.3
2017-Sep-14 10:00N 43°55' E 009°17'1019.4
2017-Sep-14 09:31N 43°49' E 009°28'1019.3
2017-Sep-14 09:01N 43°43' E 009°38'1019.4
2017-Sep-14 08:31N 43°36' E 009°48'1019.0
2017-Sep-14 08:01N 43°31' E 009°59'917.6
2017-Sep-14 07:31N 43°31' E 010°11'5 9.8
2017-Sep-14 07:00N 43°32' E 010°17'2 4.5
2017-Sep-14 06:30N 43°34' E 010°18'0 0.3
2017-Sep-14 05:55N 43°35' E 010°18'0 0.0
2017-Sep-14 05:28N 43°35' E 010°18'0 0.0
2017-Sep-14 04:58N 43°35' E 010°18'0 0.0
2017-Sep-14 04:28N 43°35' E 010°18'0 0.0
2017-Sep-14 03:58N 43°35' E 010°18'0 0.0
2017-Sep-14 03:22N 43°35' E 010°18'0 0.0
2017-Sep-14 02:55N 43°35' E 010°18'0 0.0
2017-Sep-14 02:22N 43°35' E 010°18'0 0.0
2017-Sep-14 01:52N 43°35' E 010°18'0 0.0
2017-Sep-14 01:28N 43°35' E 010°18'0 0.0
2017-Sep-14 00:58N 43°35' E 010°18'0 0.0
2017-Sep-14 00:28N 43°35' E 010°18'0 0.0
2017-Sep-13 23:58N 43°35' E 010°18'0 0.0
2017-Sep-13 23:28N 43°35' E 010°18'0 0.0
2017-Sep-13 22:58N 43°35' E 010°18'0 0.0
2017-Sep-13 22:28N 43°35' E 010°18'0 0.0
2017-Sep-13 21:58N 43°35' E 010°18'0 0.0
2017-Sep-13 21:28N 43°35' E 010°18'0 0.1
2017-Sep-13 20:58N 43°35' E 010°18'0 0.1
2017-Sep-13 20:28N 43°35' E 010°18'0 0.0
2017-Sep-13 19:52N 43°35' E 010°18'0 0.0
2017-Sep-13 19:28N 43°35' E 010°18'0 0.0
2017-Sep-13 18:52N 43°35' E 010°18'0 0.0
2017-Sep-13 18:28N 43°35' E 010°18'0 0.0
2017-Sep-13 17:58N 43°35' E 010°18'0 0.0
2017-Sep-13 17:28N 43°35' E 010°18'0 0.0
2017-Sep-13 16:58N 43°35' E 010°18'0 0.0
2017-Sep-13 16:28N 43°35' E 010°18'0 0.2
2017-Sep-13 15:58N 43°35' E 010°18'0 0.0
2017-Sep-13 15:28N 43°35' E 010°18'0 0.0
2017-Sep-13 14:58N 43°35' E 010°18'0 0.0
2017-Sep-13 14:28N 43°35' E 010°18'0 0.0
2017-Sep-13 13:55N 43°35' E 010°18'0 0.0
2017-Sep-13 13:25N 43°35' E 010°18'0 0.0
2017-Sep-13 12:58N 43°35' E 010°18'0 0.0
2017-Sep-13 12:28N 43°35' E 010°18'0 0.0
2017-Sep-13 11:58N 43°35' E 010°18'0 0.0
2017-Sep-13 11:28N 43°35' E 010°18'0 0.0
2017-Sep-13 10:55N 43°35' E 010°18'0 0.0
2017-Sep-13 10:28N 43°35' E 010°18'0 0.0
2017-Sep-13 09:58N 43°35' E 010°18'0 0.0
2017-Sep-13 09:28N 43°35' E 010°18'0 0.0
2017-Sep-13 09:00N 43°35' E 010°18'1 1.7
2017-Sep-13 08:30N 43°34' E 010°18'3 7.0
2017-Sep-13 08:00N 43°31' E 010°15'3 6.3
2017-Sep-13 07:30N 43°29' E 010°12'0 0.4
2017-Sep-13 07:00N 43°29' E 010°12'1 1.7
2017-Sep-13 06:30N 43°28' E 010°11'713.2
2017-Sep-13 06:01N 43°23' E 010°06'611.1
2017-Sep-13 05:30N 43°18' E 010°01'3 6.0
2017-Sep-13 05:00N 43°17' E 009°57'2 2.7
2017-Sep-13 04:27N 43°17' E 009°60'2 4.5
2017-Sep-13 04:00N 43°18' E 010°02'1 1.6
2017-Sep-13 03:30N 43°18' E 010°01'2 3.5
2017-Sep-13 03:00N 43°19' E 010°03'2 3.6
2017-Sep-13 02:30N 43°20' E 010°05'1 1.8
2017-Sep-13 02:00N 43°20' E 010°06'4 7.1
2017-Sep-13 01:30N 43°22' E 010°11'0 0.8
2017-Sep-13 01:00N 43°22' E 010°10'0 0.8
2017-Sep-13 00:30N 43°22' E 010°10'2 4.0
2017-Sep-13 00:00N 43°21' E 010°07'3 6.8
2017-Sep-12 23:30N 43°20' E 010°03'4 7.4
2017-Sep-12 23:00N 43°18' E 009°58'1 2.9
2017-Sep-12 22:30N 43°17' E 009°58'2 3.5
2017-Sep-12 22:01N 43°18' E 009°60'2 3.6
2017-Sep-12 21:30N 43°19' E 010°02'2 3.6
2017-Sep-12 21:00N 43°20' E 010°04'2 3.6
2017-Sep-12 20:31N 43°21' E 010°06'2 3.6
2017-Sep-12 20:00N 43°22' E 010°08'1 2.6
2017-Sep-12 19:31N 43°23' E 010°10'2 3.1
2017-Sep-12 19:01N 43°23' E 010°12'1 1.4
2017-Sep-12 18:31N 43°22' E 010°12'4 8.1
2017-Sep-12 18:00N 43°20' E 010°07'4 8.4
2017-Sep-12 17:30N 43°19' E 010°02'4 8.4
2017-Sep-12 17:01N 43°17' E 009°57'1 2.4
2017-Sep-12 16:30N 43°17' E 009°58'1 2.4
2017-Sep-12 16:01N 43°18' E 010°00'1 2.4
2017-Sep-12 15:31N 43°18' E 010°02'1 1.9
2017-Sep-12 15:00N 43°18' E 010°03'1 2.1
2017-Sep-12 14:31N 43°19' E 010°04'2 4.1
2017-Sep-12 14:00N 43°21' E 010°04'1 1.8
2017-Sep-12 13:31N 43°21' E 010°05'1 1.7
2017-Sep-12 13:00N 43°22' E 010°06'1 1.4
2017-Sep-12 12:31N 43°22' E 010°07'1 1.7
2017-Sep-12 12:00N 43°22' E 010°08'1 1.4
2017-Sep-12 11:31N 43°23' E 010°09'1 1.7
2017-Sep-12 11:00N 43°23' E 010°10'1 2.1
2017-Sep-12 10:30N 43°23' E 010°12'1 1.3
2017-Sep-12 10:01N 43°24' E 010°12'4 7.4
2017-Sep-12 09:30N 43°25' E 010°07'2 4.7
2017-Sep-12 09:00N 43°27' E 010°05'1 1.8
2017-Sep-12 08:31N 43°28' E 010°06'0 0.8
2017-Sep-12 08:01N 43°28' E 010°06'1 1.1
2017-Sep-12 07:31N 43°28' E 010°07'3 5.1
2017-Sep-12 07:01N 43°26' E 010°07'2 4.8
2017-Sep-12 06:31N 43°23' E 010°07'2 4.2
2017-Sep-12 06:01N 43°21' E 010°08'1 2.0
2017-Sep-12 05:31N 43°22' E 010°09'1 1.5
2017-Sep-12 05:00N 43°22' E 010°10'1 2.3
2017-Sep-12 04:31N 43°23' E 010°11'1 2.3
2017-Sep-12 04:00N 43°24' E 010°12'1 2.3
2017-Sep-12 03:31N 43°26' E 010°11'1 2.2
2017-Sep-12 03:01N 43°27' E 010°12'1 2.3
2017-Sep-12 02:30N 43°28' E 010°12'2 4.6
2017-Sep-12 02:01N 43°25' E 010°12'611.9
2017-Sep-12 01:30N 43°20' E 010°10'714.2
2017-Sep-12 01:00N 43°13' E 010°07'714.7
2017-Sep-12 00:30N 43°06' E 010°04'815.8
2017-Sep-12 00:00N 42°58' E 010°02'916.9
2017-Sep-11 23:29N 42°50' E 009°58'4315.4
2017-Sep-11 20:42N 42°09' E 010°16'317.1
2017-Sep-11 20:30N 42°07' E 010°19'18716.8
2017-Sep-11 09:20N 40°32' E 013°55'2016.0
2017-Sep-11 08:04N 40°31' E 014°21'115.8
2017-Sep-11 08:00N 40°31' E 014°23'  
Track history (hours):
 
Tides and Currents Weather Stations Pressure Air Temp Water Temp Dewpoint Dewpoint Depression Visibility Wind Speed Wind Dir Waves Ship Positions

Barcelona Express

Last reported at 2017-Sep-20 14:57 UTC. Time now 2017-Sep-23 04:14 UTC.
Position N 40°31' W 009°33'.

Length 228 m; draft 11 m.

Type: Ship (hazmat cat D). MMSI: 477694300.

Date/timePositionNaut miles runAvg speedWind from/ knotsBaromVisibWave heightAir tempDewpointWater temp
2017-Sep-20 14:57N 40°31' W 009°33'2119.5
2017-Sep-20 13:53N 40°11' W 009°38'719.5
2017-Sep-20 13:30N 40°04' W 009°40'1019.5
2017-Sep-20 13:00N 39°54' W 009°43'3619.8
2017-Sep-20 11:12N 39°19' W 009°52'419.7
2017-Sep-20 11:00N 39°15' W 009°52'1019.2
2017-Sep-20 10:30N 39°06' W 009°51'1019.2
2017-Sep-20 10:01N 38°56' W 009°52'1019.3
2017-Sep-20 09:30N 38°47' W 009°52'918.9
2017-Sep-20 09:00N 38°37' W 009°50'918.9
2017-Sep-20 08:30N 38°28' W 009°48'918.8
2017-Sep-20 08:01N 38°19' W 009°45'1019.0
2017-Sep-20 07:30N 38°10' W 009°42'918.7
2017-Sep-20 07:01N 38°01' W 009°39'918.8
2017-Sep-20 06:30N 37°52' W 009°36'918.8
2017-Sep-20 06:00N 37°42' W 009°33'1019.3
2017-Sep-20 05:30N 37°33' W 009°31'1019.4
2017-Sep-20 05:01N 37°24' W 009°28'1019.3
2017-Sep-20 04:30N 37°14' W 009°25'1019.4
2017-Sep-20 04:00N 37°05' W 009°22'1019.1
2017-Sep-20 03:31N 36°56' W 009°19'1019.1
2017-Sep-20 03:01N 36°48' W 009°12'1019.0
2017-Sep-20 02:31N 36°43' W 009°02'1019.3
2017-Sep-20 02:01N 36°40' W 008°50'1019.1
2017-Sep-20 01:30N 36°38' W 008°39'1019.3
2017-Sep-20 01:00N 36°35' W 008°27'1019.5
2017-Sep-20 00:30N 36°32' W 008°16'1019.5
2017-Sep-20 00:00N 36°29' W 008°04'1019.6
2017-Sep-19 23:29N 36°26' W 007°52'919.7
2017-Sep-19 23:00N 36°23' W 007°41'1019.6
2017-Sep-19 22:29N 36°20' W 007°29'1919.6
2017-Sep-19 21:32N 36°13' W 007°07'019.3
2017-Sep-19 21:30N 36°13' W 007°07'1019.4
2017-Sep-19 21:00N 36°10' W 006°55'1019.2
2017-Sep-19 20:28N 36°07' W 006°43'1019.3
2017-Sep-19 19:58N 36°03' W 006°32'4717.5
2017-Sep-19 17:15N 35°57' W 005°34'311.3
2017-Sep-19 17:01N 35°57' W 005°30'2 0.2
2017-Sep-19 06:29N 35°57' W 005°33'5 9.5
2017-Sep-19 06:00N 35°59' W 005°28'5 9.5
2017-Sep-19 05:30N 36°02' W 005°24'5 9.6
2017-Sep-19 05:00N 36°07' W 005°25'1 1.1
2017-Sep-19 04:29N 36°08' W 005°25'0 0.0
2017-Sep-19 03:14N 36°08' W 005°25'0 0.0
2017-Sep-19 02:50N 36°08' W 005°25'0 0.0
2017-Sep-19 02:26N 36°08' W 005°25'0 0.0
2017-Sep-18 21:14N 36°08' W 005°25'0 0.0
2017-Sep-18 20:56N 36°08' W 005°25'0 0.0
2017-Sep-18 20:31N 36°08' W 005°25'1 2.0
2017-Sep-18 20:00N 36°08' W 005°24'4 7.2
2017-Sep-18 19:30N 36°05' W 005°22'3 5.5
2017-Sep-18 19:01N 36°04' W 005°18'1 2.7
2017-Sep-18 18:31N 36°05' W 005°17'1 1.3
2017-Sep-18 18:01N 36°05' W 005°16'2 3.8
2017-Sep-18 17:30N 36°04' W 005°18'1 2.1
2017-Sep-18 17:01N 36°04' W 005°17'21812.9
2017-Sep-18 00:05N 37°16' W 001°00'215.0
2017-Sep-17 23:56N 37°17' W 000°58'614.9
2017-Sep-17 23:30N 37°21' W 000°52'815.1
2017-Sep-17 23:00N 37°27' W 000°45'815.2
2017-Sep-17 22:30N 37°32' W 000°38'1215.0
2017-Sep-17 21:44N 37°41' W 000°29'315.1
2017-Sep-17 21:30N 37°44' W 000°26'815.1
2017-Sep-17 21:00N 37°50' W 000°21'814.8
2017-Sep-17 20:29N 37°56' W 000°16'714.7
2017-Sep-17 20:00N 38°02' W 000°11'1814.3
2017-Sep-17 18:44N 38°18' E 000°01'10413.6
2017-Sep-17 11:06N 39°41' E 001°21'213.4
2017-Sep-17 10:58N 39°43' E 001°22'713.8
2017-Sep-17 10:30N 39°48' E 001°28'714.0
2017-Sep-17 10:00N 39°53' E 001°34'714.3
2017-Sep-17 09:30N 39°58' E 001°40'714.5
2017-Sep-17 09:00N 40°04' E 001°46'714.4
2017-Sep-17 08:30N 40°09' E 001°52'714.2
2017-Sep-17 08:00N 40°15' E 001°58'714.0
2017-Sep-17 07:30N 40°20' E 002°04'714.1
2017-Sep-17 07:01N 40°25' E 002°10'714.1
2017-Sep-17 06:30N 40°31' E 002°16'714.2
2017-Sep-17 06:00N 40°36' E 002°22'714.3
2017-Sep-17 05:30N 40°42' E 002°28'714.7
2017-Sep-17 05:00N 40°48' E 002°34'714.5
2017-Sep-17 04:30N 40°53' E 002°40'714.7
2017-Sep-17 04:00N 40°59' E 002°46'815.1
2017-Sep-17 03:30N 41°05' E 002°52'714.7
2017-Sep-17 03:00N 41°10' E 002°59'10514.7
2017-Sep-16 19:52N 42°33' E 004°26'514.3
2017-Sep-16 19:30N 42°37' E 004°30'714.6
2017-Sep-16 19:00N 42°43' E 004°35'714.4
2017-Sep-16 18:30N 42°49' E 004°40'714.2
2017-Sep-16 18:01N 42°55' E 004°45'714.1
2017-Sep-16 17:31N 43°01' E 004°50'714.0
2017-Sep-16 17:01N 43°07' E 004°56'713.6
2017-Sep-16 16:30N 43°13' E 005°01'714.0
2017-Sep-16 16:00N 43°20' E 004°58'510.3
2017-Sep-16 15:31N 43°24' E 004°54'2 4.8
2017-Sep-16 15:00N 43°24' E 004°51'0 0.0
2017-Sep-16 14:30N 43°24' E 004°51'0 0.0
2017-Sep-16 14:00N 43°24' E 004°51'0 0.0
2017-Sep-16 13:30N 43°24' E 004°51'0 0.0
2017-Sep-16 13:00N 43°24' E 004°51'0 0.0
2017-Sep-16 12:30N 43°24' E 004°51'0 0.0
2017-Sep-16 12:00N 43°24' E 004°51'0 0.0
2017-Sep-16 11:30N 43°24' E 004°51'0 0.0
2017-Sep-16 11:00N 43°24' E 004°51'0 0.0
2017-Sep-16 10:30N 43°24' E 004°51'0 0.0
2017-Sep-16 10:00N 43°24' E 004°51'0 0.0
2017-Sep-16 09:30N 43°24' E 004°51'0 0.0
2017-Sep-16 09:00N 43°24' E 004°51'0 0.0
2017-Sep-16 08:27N 43°24' E 004°51'0 0.0
2017-Sep-16 08:00N 43°24' E 004°51'0 0.0
2017-Sep-16 07:30N 43°24' E 004°51'0 0.0
2017-Sep-16 07:00N 43°24' E 004°51'0 0.0
2017-Sep-16 06:30N 43°24' E 004°51'0 0.0
2017-Sep-16 06:00N 43°24' E 004°51'0 0.0
2017-Sep-16 05:27N 43°24' E 004°51'0 0.0
2017-Sep-16 05:00N 43°24' E 004°51'0 0.0
2017-Sep-16 04:30N 43°24' E 004°51'0 0.0
2017-Sep-16 03:54N 43°24' E 004°51'0 0.0
2017-Sep-16 03:30N 43°24' E 004°51'0 1.0
2017-Sep-16 03:00N 43°24' E 004°52'510.4
2017-Sep-16 02:31N 43°22' E 004°58'4 7.7
2017-Sep-16 02:00N 43°18' E 004°60'4 8.5
2017-Sep-16 01:30N 43°14' E 005°02'5 9.2
2017-Sep-16 01:01N 43°11' E 005°06'3 5.6
2017-Sep-16 00:30N 43°09' E 005°09'714.5
2017-Sep-16 00:01N 43°05' E 005°17'815.0
2017-Sep-15 23:31N 43°02' E 005°27'714.8
2017-Sep-15 23:01N 42°57' E 005°34'6413.7
2017-Sep-15 18:22N 43°10' E 006°60'615.1
2017-Sep-15 18:00N 43°14' E 007°06'715.0
2017-Sep-15 17:30N 43°18' E 007°14'815.0
2017-Sep-15 17:00N 43°22' E 007°23'815.0
2017-Sep-15 16:30N 43°27' E 007°31'814.8
2017-Sep-15 15:59N 43°31' E 007°39'2615.2
2017-Sep-15 14:17N 43°46' E 008°09'615.2
2017-Sep-15 13:54N 43°49' E 008°15'615.8
2017-Sep-15 13:31N 43°54' E 008°22'815.6
2017-Sep-15 13:00N 43°59' E 008°29'815.5
2017-Sep-15 12:30N 44°05' E 008°36'815.2
2017-Sep-15 12:00N 44°11' E 008°44'815.5
2017-Sep-15 11:31N 44°16' E 008°52'713.9
2017-Sep-15 11:00N 44°22' E 008°57'3 6.1
2017-Sep-15 10:30N 44°24' E 008°54'0 0.5
2017-Sep-15 09:58N 44°24' E 008°54'0 0.0
2017-Sep-15 09:28N 44°24' E 008°54'0 0.0
2017-Sep-15 08:58N 44°24' E 008°54'0 0.0
2017-Sep-15 08:28N 44°24' E 008°54'0 0.0
2017-Sep-15 07:58N 44°24' E 008°54'0 0.0
2017-Sep-15 07:30N 44°24' E 008°54'0 0.0
2017-Sep-15 07:00N 44°24' E 008°54'0 0.0
2017-Sep-15 06:30N 44°24' E 008°54'0 0.0
2017-Sep-15 06:00N 44°24' E 008°54'0 0.0
2017-Sep-15 05:30N 44°24' E 008°54'0 0.0
2017-Sep-15 05:00N 44°24' E 008°54'0 0.0
2017-Sep-15 04:30N 44°24' E 008°54'0 0.0
2017-Sep-15 04:00N 44°24' E 008°54'0 0.0
2017-Sep-15 03:30N 44°24' E 008°54'0 0.0
2017-Sep-15 03:00N 44°24' E 008°54'0 0.0
2017-Sep-15 02:30N 44°24' E 008°54'0 0.0
2017-Sep-15 02:00N 44°24' E 008°54'0 0.0
2017-Sep-15 01:30N 44°24' E 008°54'0 0.0
2017-Sep-15 01:00N 44°24' E 008°54'0 0.0
2017-Sep-15 00:30N 44°24' E 008°54'0 0.0
2017-Sep-15 00:00N 44°24' E 008°54'0 0.0
2017-Sep-14 23:30N 44°24' E 008°54'0 0.0
2017-Sep-14 23:00N 44°24' E 008°54'0 0.0
2017-Sep-14 22:30N 44°24' E 008°54'0 0.0
2017-Sep-14 22:00N 44°24' E 008°54'0 0.0
2017-Sep-14 21:30N 44°24' E 008°54'0 0.0
2017-Sep-14 21:00N 44°24' E 008°54'0 0.0
2017-Sep-14 20:30N 44°24' E 008°54'0 0.0
2017-Sep-14 20:00N 44°24' E 008°54'0 0.0
2017-Sep-14 19:30N 44°24' E 008°54'0 0.0
2017-Sep-14 19:00N 44°24' E 008°54'0 0.0
2017-Sep-14 18:30N 44°24' E 008°54'0 0.0
2017-Sep-14 18:00N 44°24' E 008°54'0 0.0
2017-Sep-14 17:30N 44°24' E 008°54'0 0.0
2017-Sep-14 17:00N 44°24' E 008°54'0 0.0
2017-Sep-14 16:30N 44°24' E 008°54'0 0.0
2017-Sep-14 16:00N 44°24' E 008°54'0 0.0
2017-Sep-14 15:30N 44°24' E 008°54'0 0.0
2017-Sep-14 15:00N 44°24' E 008°54'0 0.0
2017-Sep-14 14:30N 44°24' E 008°54'0 0.0
2017-Sep-14 14:00N 44°24' E 008°54'0 0.0
2017-Sep-14 13:30N 44°24' E 008°54'1 1.7
2017-Sep-14 13:00N 44°24' E 008°55'4 7.1
2017-Sep-14 12:30N 44°22' E 008°59'2 3.0
2017-Sep-14 12:00N 44°20' E 008°60'2 3.2
2017-Sep-14 11:30N 44°19' E 008°60'816.4
2017-Sep-14 11:01N 44°11' E 009°05'918.4
2017-Sep-14 10:31N 44°03' E 009°10'1019.3
2017-Sep-14 10:00N 43°55' E 009°17'1019.4
2017-Sep-14 09:31N 43°49' E 009°28'1019.3
2017-Sep-14 09:01N 43°43' E 009°38'1019.4
2017-Sep-14 08:31N 43°36' E 009°48'1019.0
2017-Sep-14 08:01N 43°31' E 009°59'917.6
2017-Sep-14 07:31N 43°31' E 010°11'5 9.8
2017-Sep-14 07:00N 43°32' E 010°17'2 4.5
2017-Sep-14 06:30N 43°34' E 010°18'0 0.3
2017-Sep-14 05:55N 43°35' E 010°18'0 0.0
2017-Sep-14 05:28N 43°35' E 010°18'0 0.0
2017-Sep-14 04:58N 43°35' E 010°18'0 0.0
2017-Sep-14 04:28N 43°35' E 010°18'0 0.0
2017-Sep-14 03:58N 43°35' E 010°18'0 0.0
2017-Sep-14 03:22N 43°35' E 010°18'0 0.0
2017-Sep-14 02:55N 43°35' E 010°18'0 0.0
2017-Sep-14 02:22N 43°35' E 010°18'0 0.0
2017-Sep-14 01:52N 43°35' E 010°18'0 0.0
2017-Sep-14 01:28N 43°35' E 010°18'0 0.0
2017-Sep-14 00:58N 43°35' E 010°18'0 0.0
2017-Sep-14 00:28N 43°35' E 010°18'0 0.0
2017-Sep-13 23:58N 43°35' E 010°18'0 0.0
2017-Sep-13 23:28N 43°35' E 010°18'0 0.0
2017-Sep-13 22:58N 43°35' E 010°18'0 0.0
2017-Sep-13 22:28N 43°35' E 010°18'0 0.0
2017-Sep-13 21:58N 43°35' E 010°18'0 0.0
2017-Sep-13 21:28N 43°35' E 010°18'0 0.1
2017-Sep-13 20:58N 43°35' E 010°18'0 0.1
2017-Sep-13 20:28N 43°35' E 010°18'0 0.0
2017-Sep-13 19:52N 43°35' E 010°18'0 0.0
2017-Sep-13 19:28N 43°35' E 010°18'0 0.0
2017-Sep-13 18:52N 43°35' E 010°18'0 0.0
2017-Sep-13 18:28N 43°35' E 010°18'0 0.0
2017-Sep-13 17:58N 43°35' E 010°18'0 0.0
2017-Sep-13 17:28N 43°35' E 010°18'0 0.0
2017-Sep-13 16:58N 43°35' E 010°18'0 0.0
2017-Sep-13 16:28N 43°35' E 010°18'0 0.2
2017-Sep-13 15:58N 43°35' E 010°18'0 0.0
2017-Sep-13 15:28N 43°35' E 010°18'0 0.0
2017-Sep-13 14:58N 43°35' E 010°18'0 0.0
2017-Sep-13 14:28N 43°35' E 010°18'0 0.0
2017-Sep-13 13:55N 43°35' E 010°18'0 0.0
2017-Sep-13 13:25N 43°35' E 010°18'0 0.0
2017-Sep-13 12:58N 43°35' E 010°18'0 0.0
2017-Sep-13 12:28N 43°35' E 010°18'0 0.0
2017-Sep-13 11:58N 43°35' E 010°18'0 0.0
2017-Sep-13 11:28N 43°35' E 010°18'0 0.0
2017-Sep-13 10:55N 43°35' E 010°18'0 0.0
2017-Sep-13 10:28N 43°35' E 010°18'0 0.0
2017-Sep-13 09:58N 43°35' E 010°18'0 0.0
2017-Sep-13 09:28N 43°35' E 010°18'0 0.0
2017-Sep-13 09:00N 43°35' E 010°18'1 1.7
2017-Sep-13 08:30N 43°34' E 010°18'3 7.0
2017-Sep-13 08:00N 43°31' E 010°15'3 6.3
2017-Sep-13 07:30N 43°29' E 010°12'0 0.4
2017-Sep-13 07:00N 43°29' E 010°12'1 1.7
2017-Sep-13 06:30N 43°28' E 010°11'713.2
2017-Sep-13 06:01N 43°23' E 010°06'611.1
2017-Sep-13 05:30N 43°18' E 010°01'3 6.0
2017-Sep-13 05:00N 43°17' E 009°57'2 2.7
2017-Sep-13 04:27N 43°17' E 009°60'2 4.5
2017-Sep-13 04:00N 43°18' E 010°02'1 1.6
2017-Sep-13 03:30N 43°18' E 010°01'2 3.5
2017-Sep-13 03:00N 43°19' E 010°03'2 3.6
2017-Sep-13 02:30N 43°20' E 010°05'1 1.8
2017-Sep-13 02:00N 43°20' E 010°06'4 7.1
2017-Sep-13 01:30N 43°22' E 010°11'0 0.8
2017-Sep-13 01:00N 43°22' E 010°10'0 0.8
2017-Sep-13 00:30N 43°22' E 010°10'2 4.0
2017-Sep-13 00:00N 43°21' E 010°07'3 6.8
2017-Sep-12 23:30N 43°20' E 010°03'4 7.4
2017-Sep-12 23:00N 43°18' E 009°58'1 2.9
2017-Sep-12 22:30N 43°17' E 009°58'2 3.5
2017-Sep-12 22:01N 43°18' E 009°60'2 3.6
2017-Sep-12 21:30N 43°19' E 010°02'2 3.6
2017-Sep-12 21:00N 43°20' E 010°04'2 3.6
2017-Sep-12 20:31N 43°21' E 010°06'2 3.6
2017-Sep-12 20:00N 43°22' E 010°08'1 2.6
2017-Sep-12 19:31N 43°23' E 010°10'2 3.1
2017-Sep-12 19:01N 43°23' E 010°12'1 1.4
2017-Sep-12 18:31N 43°22' E 010°12'4 8.1
2017-Sep-12 18:00N 43°20' E 010°07'4 8.4
2017-Sep-12 17:30N 43°19' E 010°02'4 8.4
2017-Sep-12 17:01N 43°17' E 009°57'1 2.4
2017-Sep-12 16:30N 43°17' E 009°58'1 2.4
2017-Sep-12 16:01N 43°18' E 010°00'1 2.4
2017-Sep-12 15:31N 43°18' E 010°02'1 1.9
2017-Sep-12 15:00N 43°18' E 010°03'1 2.1
2017-Sep-12 14:31N 43°19' E 010°04'2 4.1
2017-Sep-12 14:00N 43°21' E 010°04'1 1.8
2017-Sep-12 13:31N 43°21' E 010°05'1 1.7
2017-Sep-12 13:00N 43°22' E 010°06'1 1.4
2017-Sep-12 12:31N 43°22' E 010°07'1 1.7
2017-Sep-12 12:00N 43°22' E 010°08'1 1.4
2017-Sep-12 11:31N 43°23' E 010°09'1 1.7
2017-Sep-12 11:00N 43°23' E 010°10'1 2.1
2017-Sep-12 10:30N 43°23' E 010°12'1 1.3
2017-Sep-12 10:01N 43°24' E 010°12'4 7.4
2017-Sep-12 09:30N 43°25' E 010°07'2 4.7
2017-Sep-12 09:00N 43°27' E 010°05'1 1.8
2017-Sep-12 08:31N 43°28' E 010°06'0 0.8
2017-Sep-12 08:01N 43°28' E 010°06'1 1.1
2017-Sep-12 07:31N 43°28' E 010°07'3 5.1
2017-Sep-12 07:01N 43°26' E 010°07'2 4.8
2017-Sep-12 06:31N 43°23' E 010°07'2 4.2
2017-Sep-12 06:01N 43°21' E 010°08'1 2.0
2017-Sep-12 05:31N 43°22' E 010°09'1 1.5
2017-Sep-12 05:00N 43°22' E 010°10'1 2.3
2017-Sep-12 04:31N 43°23' E 010°11'1 2.3
2017-Sep-12 04:00N 43°24' E 010°12'1 2.3
2017-Sep-12 03:31N 43°26' E 010°11'1 2.2
2017-Sep-12 03:01N 43°27' E 010°12'1 2.3
2017-Sep-12 02:30N 43°28' E 010°12'2 4.6
2017-Sep-12 02:01N 43°25' E 010°12'611.9
2017-Sep-12 01:30N 43°20' E 010°10'714.2
2017-Sep-12 01:00N 43°13' E 010°07'714.7
2017-Sep-12 00:30N 43°06' E 010°04'815.8
2017-Sep-12 00:00N 42°58' E 010°02'916.9
2017-Sep-11 23:29N 42°50' E 009°58'4315.4
2017-Sep-11 20:42N 42°09' E 010°16'317.1
2017-Sep-11 20:30N 42°07' E 010°19'18716.8
2017-Sep-11 09:20N 40°32' E 013°55'2016.0
2017-Sep-11 08:04N 40°31' E 014°21'115.8
2017-Sep-11 08:00N 40°31' E 014°23'  

Dump ship's entire track history